Time;durP1;ratioP1;P1;durP2;ratioP2;P2;SDS_P1;SDS_P2;PMS_P1;PMS_P2;Temp;Humidity;BMP_temperature;BMP_pressure;BME280_temperature;BME280_humidity;BME280_pressure;Samples;Min_cycle;Max_cycle;Signal;HPM_P1;HPM_P2
2022/04/28 00:01:46;;;;;;;8.05;6.40;;;10.00;99.90;;;;;;5053475;28;20037;-66
2022/04/28 00:04:12;;;;;;;9.60;6.97;;;10.10;99.90;;;;;;5053945;28;20064;-67
2022/04/28 00:06:38;;;;;;;7.93;6.10;;;10.10;99.90;;;;;;5054055;28;20068;-68
2022/04/28 00:09:04;;;;;;;11.30;6.50;;;10.10;99.90;;;;;;5052591;28;20474;-68
2022/04/28 00:11:30;;;;;;;8.70;6.93;;;10.10;99.90;;;;;;5052570;28;20032;-68
2022/04/28 00:13:58;;;;;;;10.43;6.67;;;10.10;99.90;;;;;;5052351;28;20124;-68
2022/04/28 00:16:24;;;;;;;10.20;7.07;;;10.10;99.90;;;;;;5053869;28;20342;-68
2022/04/28 00:18:50;;;;;;;11.07;6.53;;;10.10;99.90;;;;;;5053249;28;20113;-68
2022/04/28 00:21:16;;;;;;;8.15;6.45;;;10.20;99.90;;;;;;5053241;28;20478;-68
2022/04/28 00:23:41;;;;;;;10.57;6.68;;;10.20;99.90;;;;;;5053723;28;20021;-68
2022/04/28 00:26:07;;;;;;;9.80;6.77;;;10.20;99.90;;;;;;5052269;28;20067;-68
2022/04/28 00:28:32;;;;;;;11.50;6.97;;;10.20;99.90;;;;;;5052882;28;20021;-68
2022/04/28 00:30:58;;;;;;;8.93;6.77;;;10.20;99.90;;;;;;5052697;28;20115;-69
2022/04/28 00:33:24;;;;;;;9.47;7.67;;;10.20;99.90;;;;;;5053370;28;20029;-69
2022/04/28 00:35:50;;;;;;;10.03;6.73;;;10.10;99.90;;;;;;5052246;28;20470;-68
2022/04/28 00:38:15;;;;;;;9.40;6.80;;;10.10;99.90;;;;;;5053564;28;20021;-69
2022/04/28 00:40:41;;;;;;;7.83;6.63;;;10.00;99.90;;;;;;5053268;28;20096;-69
2022/04/28 00:43:18;;;;;;;10.37;6.83;;;10.00;99.90;;;;;;5053176;28;20055;-68
2022/04/28 00:45:45;;;;;;;8.07;6.45;;;10.00;99.90;;;;;;5051773;28;20111;-68
2022/04/28 00:50:58;;;;;;;9.27;6.93;;;10.00;99.90;;;;;;5053405;28;20082;-69
2022/04/28 00:53:26;;;;;;;8.05;5.97;;;10.00;99.90;;;;;;5053030;28;20028;-69
2022/04/28 00:55:52;;;;;;;10.23;6.50;;;10.00;99.90;;;;;;5052961;28;20021;-69
2022/04/28 00:58:19;;;;;;;10.23;6.97;;;10.00;99.90;;;;;;5052948;28;20017;-69
2022/04/28 01:00:44;;;;;;;8.30;6.78;;;10.00;99.90;;;;;;5053133;28;20028;-69
2022/04/28 01:03:11;;;;;;;10.30;7.30;;;10.00;99.90;;;;;;5051710;28;20021;-69
2022/04/28 01:05:37;;;;;;;9.35;6.90;;;10.00;99.90;;;;;;5051847;28;20024;-69
2022/04/28 01:08:02;;;;;;;7.63;6.57;;;10.00;99.90;;;;;;5052027;28;20400;-69
2022/04/28 01:10:28;;;;;;;8.95;6.30;;;10.00;99.90;;;;;;5053264;28;20025;-69
2022/04/28 01:12:54;;;;;;;8.53;6.30;;;10.00;99.90;;;;;;5052812;28;20029;-69
2022/04/28 01:15:20;;;;;;;10.27;6.80;;;9.90;99.90;;;;;;5052871;28;20024;-69
2022/04/28 01:17:45;;;;;;;9.43;6.70;;;9.90;99.90;;;;;;5052813;28;20465;-69
2022/04/28 01:20:11;;;;;;;10.10;7.17;;;9.90;99.90;;;;;;5052995;28;20021;-69
2022/04/28 01:22:37;;;;;;;10.48;7.57;;;9.80;99.90;;;;;;5052694;28;20401;-69
2022/04/28 01:25:07;;;;;;;9.43;6.60;;;9.70;99.90;;;;;;5052699;28;20470;-69
2022/04/28 01:27:33;;;;;;;9.07;6.88;;;9.70;99.90;;;;;;5052598;28;20044;-69
2022/04/28 01:29:59;;;;;;;;;;;9.70;99.90;;;;;;5053117;28;20032;-69
2022/04/28 01:32:25;;;;;;;8.32;6.88;;;9.60;99.90;;;;;;5051720;28;19927;-69
2022/04/28 01:34:51;;;;;;;10.02;6.95;;;9.70;99.90;;;;;;5053420;28;20036;-69
2022/04/28 01:37:18;;;;;;;12.18;7.65;;;9.70;99.90;;;;;;5062381;28;20033;-70
2022/04/28 01:39:44;;;;;;;9.88;7.32;;;9.70;99.90;;;;;;5059160;28;20057;-69
2022/04/28 01:42:09;;;;;;;11.27;7.10;;;9.70;99.90;;;;;;5052823;28;20048;-69
2022/04/28 01:44:35;;;;;;;10.85;7.63;;;9.70;99.90;;;;;;5056026;28;20028;-69
2022/04/28 01:47:01;;;;;;;9.57;6.97;;;9.70;99.90;;;;;;5057103;28;20093;-69
2022/04/28 01:49:27;;;;;;;9.80;7.30;;;9.60;99.90;;;;;;5058244;28;20032;-69
2022/04/28 01:57:22;;;;;;;8.80;6.97;;;9.60;99.90;;;;;;5056676;28;20401;-70
2022/04/28 01:59:47;;;;;;;9.10;6.97;;;9.60;99.90;;;;;;5056315;28;20024;-69
2022/04/28 02:02:13;;;;;;;10.20;7.00;;;9.60;99.90;;;;;;5056247;28;20116;-69
2022/04/28 02:04:38;;;;;;;10.40;7.20;;;9.60;99.90;;;;;;5054786;28;20440;-69
2022/04/28 02:07:06;;;;;;;16.50;6.80;;;9.60;99.90;;;;;;5056910;28;20025;-69
2022/04/28 02:09:32;;;;;;;9.07;6.80;;;9.60;99.90;;;;;;5054522;28;20025;-69
2022/04/28 02:11:57;;;;;;;10.47;7.27;;;9.60;99.90;;;;;;5054378;28;20108;-69
2022/04/28 02:14:23;;;;;;;9.47;7.10;;;9.50;99.90;;;;;;5055907;28;20021;-69
2022/04/28 02:16:49;;;;;;;9.70;7.20;;;9.40;99.90;;;;;;5055637;28;20101;-69
2022/04/28 02:19:15;;;;;;;11.70;7.47;;;9.40;99.90;;;;;;5054370;28;20086;-69
2022/04/28 02:21:40;;;;;;;11.10;7.60;;;9.30;99.90;;;;;;5054007;28;20787;-69
2022/04/28 02:24:07;;;;;;;9.43;7.70;;;9.30;99.90;;;;;;5055735;28;20025;-69
2022/04/28 02:26:32;;;;;;;10.82;7.40;;;9.20;99.90;;;;;;5057993;28;20032;-69
2022/04/28 02:28:58;;;;;;;11.07;7.73;;;9.20;99.90;;;;;;5062356;28;20054;-69
2022/04/28 02:31:24;;;;;;;11.70;7.90;;;9.20;99.90;;;;;;5055419;28;20032;-69
2022/04/28 02:33:49;;;;;;;11.50;7.57;;;9.10;99.90;;;;;;5054145;28;20032;-69
2022/04/28 02:36:15;;;;;;;9.20;6.73;;;9.10;99.90;;;;;;5055523;28;20025;-69
2022/04/28 02:38:41;;;;;;;8.10;6.97;;;9.00;99.90;;;;;;5054020;28;20082;-69
2022/04/28 02:41:07;;;;;;;8.95;7.45;;;9.00;99.90;;;;;;5055162;28;20029;-69
2022/04/28 02:43:32;;;;;;;11.07;8.27;;;9.00;99.90;;;;;;5055358;28;20048;-69
2022/04/28 02:45:58;;;;;;;12.18;7.80;;;8.90;99.90;;;;;;5055755;28;20064;-69
2022/04/28 02:48:24;;;;;;;10.73;7.35;;;8.80;99.90;;;;;;5055550;28;20025;-69
2022/04/28 02:50:50;;;;;;;11.88;7.35;;;8.80;99.90;;;;;;5055228;28;20029;-69
2022/04/28 02:53:16;;;;;;;11.83;8.07;;;8.70;99.90;;;;;;5054825;28;20104;-69
2022/04/28 02:55:41;;;;;;;10.00;7.37;;;8.60;99.90;;;;;;5054481;28;20474;-69
2022/04/28 02:58:08;;;;;;;12.25;7.72;;;8.60;99.90;;;;;;5054955;28;20055;-69
2022/04/28 03:00:36;;;;;;;9.20;7.05;;;8.50;99.90;;;;;;5054839;28;20033;-69
2022/04/28 03:03:01;;;;;;;9.57;7.90;;;8.50;99.90;;;;;;5054939;28;20021;-69
2022/04/28 03:05:27;;;;;;;13.00;7.53;;;8.50;99.90;;;;;;5053463;28;20039;-69
2022/04/28 03:10:46;;;;;;;11.23;8.65;;;8.40;99.90;;;;;;5055387;28;20485;-69
2022/04/28 03:13:13;;;;;;;11.18;8.18;;;8.30;99.90;;;;;;5053396;28;20371;-68
2022/04/28 03:15:39;;;;;;;12.65;7.68;;;8.30;99.90;;;;;;5053188;28;20123;-69
2022/04/28 03:18:05;;;;;;;13.35;8.48;;;8.30;99.90;;;;;;5054700;28;20028;-69
2022/04/28 03:20:30;;;;;;;10.20;7.68;;;8.20;99.90;;;;;;5053087;28;20021;-69
2022/04/28 03:22:56;;;;;;;13.03;8.47;;;8.20;99.90;;;;;;5054220;28;20090;-69
2022/04/28 03:25:22;;;;;;;11.40;7.70;;;8.20;99.90;;;;;;5052908;28;20021;-69
2022/04/28 03:27:47;;;;;;;11.17;8.77;;;8.10;99.90;;;;;;5052997;28;20086;-69
2022/04/28 03:30:13;;;;;;;11.90;7.40;;;8.20;99.90;;;;;;5052798;28;20247;-69
2022/04/28 03:32:39;;;;;;;9.40;7.83;;;8.20;99.90;;;;;;5054045;28;20060;-70
2022/04/28 03:35:05;;;;;;;11.33;8.07;;;8.10;99.90;;;;;;5054108;28;20103;-69
2022/04/28 03:37:30;;;;;;;11.68;7.90;;;8.20;99.90;;;;;;5052845;28;20021;-69
2022/04/28 03:39:56;;;;;;;11.97;8.70;;;8.20;99.90;;;;;;5054518;28;20039;-69
2022/04/28 03:42:21;;;;;;;8.70;7.30;;;8.20;99.90;;;;;;5052872;28;20644;-69
2022/04/28 03:44:48;;;;;;;10.93;8.03;;;8.20;99.90;;;;;;5054111;28;20024;-69
2022/04/28 03:47:13;;;;;;;10.95;8.23;;;8.20;99.90;;;;;;5054142;28;20021;-68
2022/04/28 03:49:39;;;;;;;12.03;7.90;;;8.20;99.90;;;;;;5054439;28;20518;-72
2022/04/28 03:52:05;;;;;;;13.07;8.50;;;8.20;99.90;;;;;;5053668;28;20029;-70
2022/04/28 03:54:31;;;;;;;10.65;7.75;;;8.20;99.90;;;;;;5052404;28;20025;-69
2022/04/28 03:56:56;;;;;;;10.80;8.30;;;8.10;99.90;;;;;;5053972;28;20025;-68
2022/04/28 03:59:22;;;;;;;11.97;8.60;;;8.10;99.90;;;;;;5053683;28;20032;-69
2022/04/28 04:01:49;;;;;;;10.93;7.80;;;8.10;99.90;;;;;;5053487;28;20056;-67
2022/04/28 04:04:14;;;;;;;9.35;7.65;;;8.10;99.90;;;;;;5053838;28;20036;-67
2022/04/28 04:06:41;;;;;;;11.10;8.13;;;8.10;99.90;;;;;;5053083;28;20458;-67
2022/04/28 04:09:08;;;;;;;;;;;8.10;99.90;;;;;;5053948;28;20047;-67
2022/04/28 04:11:33;;;;;;;10.98;7.70;;;8.10;99.90;;;;;;5052352;28;20336;-68
2022/04/28 04:13:59;;;;;;;12.40;8.37;;;8.10;99.90;;;;;;5053450;28;20025;-68
2022/04/28 04:16:24;;;;;;;13.63;8.40;;;8.10;99.90;;;;;;5052232;28;20267;-68
2022/04/28 04:18:50;;;;;;;15.43;8.03;;;8.00;99.90;;;;;;5053895;28;20025;-68
2022/04/28 04:21:16;;;;;;;13.17;8.33;;;8.00;99.90;;;;;;5052151;28;20028;-68
2022/04/28 04:23:41;;;;;;;12.53;8.53;;;8.00;99.90;;;;;;5053786;28;20386;-68
2022/04/28 04:26:07;;;;;;;12.93;8.27;;;8.00;99.90;;;;;;5053395;28;20078;-74
2022/04/28 04:28:33;;;;;;;12.32;8.80;;;8.00;99.90;;;;;;5053249;28;20013;-70
2022/04/28 04:33:42;;;;;;;13.18;9.13;;;7.90;99.90;;;;;;5053355;28;20394;-70
2022/04/28 04:36:08;;;;;;;13.33;9.00;;;7.90;99.90;;;;;;5054330;28;20028;-70
2022/04/28 04:38:34;;;;;;;11.40;8.90;;;7.80;99.90;;;;;;5053453;28;20103;-68
2022/04/28 04:40:59;;;;;;;10.80;8.53;;;7.80;99.90;;;;;;5053163;28;20028;-69
2022/04/28 04:43:25;;;;;;;11.80;9.23;;;7.80;99.90;;;;;;5051864;28;20028;-69
2022/04/28 04:45:50;;;;;;;12.20;8.83;;;7.80;99.90;;;;;;5053262;28;20021;-69
2022/04/28 04:48:16;;;;;;;10.67;8.63;;;7.80;99.90;;;;;;5053570;28;20021;-67
2022/04/28 04:50:41;;;;;;;13.27;9.37;;;7.90;99.90;;;;;;5053224;28;20080;-68
2022/04/28 04:53:08;;;;;;;11.30;8.53;;;7.90;99.90;;;;;;5052815;28;20032;-70
2022/04/28 04:55:36;;;;;;;13.07;8.90;;;7.80;99.90;;;;;;5051619;28;20402;-69
2022/04/28 04:58:03;;;;;;;12.82;8.82;;;7.80;99.90;;;;;;5054120;28;20025;-69
2022/04/28 05:00:29;;;;;;;11.73;9.27;;;7.90;99.90;;;;;;5057805;28;20029;-69
2022/04/28 05:02:54;;;;;;;13.23;9.00;;;7.80;99.90;;;;;;5053852;28;20033;-68
2022/04/28 05:05:20;;;;;;;13.13;9.17;;;7.80;99.90;;;;;;5052851;28;20096;-69
2022/04/28 05:07:46;;;;;;;11.23;8.87;;;7.80;99.90;;;;;;5051753;28;20078;-69
2022/04/28 05:10:11;;;;;;;12.73;9.60;;;7.80;99.90;;;;;;5053110;28;20263;-69
2022/04/28 05:12:37;;;;;;;10.37;8.63;;;7.80;99.90;;;;;;5051242;28;20445;-69
2022/04/28 05:15:03;;;;;;;12.60;8.83;;;7.90;99.90;;;;;;5052424;28;20029;-67
2022/04/28 05:17:29;;;;;;;12.30;9.65;;;7.90;99.90;;;;;;5052800;28;20493;-68
2022/04/28 05:19:58;;;;;;;13.10;9.67;;;7.80;99.90;;;;;;5057263;28;20037;-69
2022/04/28 05:22:26;;;;;;;13.30;9.20;;;7.80;99.90;;;;;;5056577;28;20422;-69
2022/04/28 05:24:52;;;;;;;11.63;8.73;;;7.80;99.90;;;;;;5056808;28;20079;-69
2022/04/28 05:27:18;;;;;;;14.03;10.27;;;7.80;99.90;;;;;;5057151;28;20025;-69
2022/04/28 05:29:43;;;;;;;11.90;9.25;;;7.90;99.90;;;;;;5057035;28;20025;-69
2022/04/28 05:32:09;;;;;;;12.30;9.00;;;7.90;99.90;;;;;;5056727;28;20040;-69
2022/04/28 05:34:35;;;;;;;13.33;9.97;;;8.00;99.90;;;;;;5056480;28;20401;-70
2022/04/28 05:37:01;;;;;;;13.63;9.27;;;8.00;99.90;;;;;;5056952;28;20033;-68
2022/04/28 05:39:28;;;;;;;13.38;9.43;;;8.10;99.90;;;;;;5056535;28;20454;-68
2022/04/28 05:41:55;;;;;;;11.48;9.05;;;8.20;99.90;;;;;;5055541;28;20346;-68
2022/04/28 05:47:05;;;;;;;13.25;9.50;;;8.30;99.90;;;;;;5056784;28;20082;-68
2022/04/28 05:49:31;;;;;;;13.63;8.80;;;8.40;99.90;;;;;;5056256;28;20021;-69
2022/04/28 05:51:57;;;;;;;13.02;9.02;;;8.40;99.90;;;;;;5056613;28;20174;-68
2022/04/28 05:54:23;;;;;;;12.48;8.68;;;8.50;99.90;;;;;;5055134;28;20504;-68
2022/04/28 05:56:49;;;;;;;14.32;9.18;;;8.50;99.90;;;;;;5056590;28;20055;-68
2022/04/28 05:59:16;;;;;;;11.90;8.52;;;8.50;99.90;;;;;;5056404;28;20028;-68
2022/04/28 06:01:42;;;;;;;13.32;9.57;;;8.50;99.90;;;;;;5056604;28;20037;-67
2022/04/28 06:04:07;;;;;;;13.10;9.45;;;8.50;99.90;;;;;;5057594;28;20019;-69
2022/04/28 06:06:33;;;;;;;12.80;9.63;;;8.50;99.90;;;;;;5057833;28;20110;-67
2022/04/28 06:08:59;;;;;;;11.20;8.67;;;8.60;99.90;;;;;;5056541;28;20029;-67
2022/04/28 06:11:25;;;;;;;20.27;9.80;;;8.70;99.90;;;;;;5056151;28;20620;-67
2022/04/28 06:13:50;;;;;;;13.00;9.60;;;8.70;99.90;;;;;;5054596;28;20036;-66
2022/04/28 06:16:16;;;;;;;11.43;7.93;;;8.80;99.90;;;;;;5055898;28;20478;-67
2022/04/28 06:18:41;;;;;;;15.03;9.00;;;8.90;99.90;;;;;;5055690;28;20025;-67
2022/04/28 06:21:07;;;;;;;11.40;8.20;;;9.00;99.90;;;;;;5055759;28;20028;-67
2022/04/28 06:23:32;;;;;;;12.73;8.53;;;9.00;99.90;;;;;;5055743;28;20079;-67
2022/04/28 06:25:58;;;;;;;10.27;8.50;;;9.10;99.90;;;;;;5055501;28;20486;-68
2022/04/28 06:28:23;;;;;;;11.37;8.20;;;9.20;99.90;;;;;;5055944;28;20017;-67
2022/04/28 06:30:49;;;;;;;15.23;9.00;;;9.30;99.90;;;;;;5054996;28;20024;-67
2022/04/28 06:33:14;;;;;;;10.07;8.33;;;9.30;99.90;;;;;;5056126;28;20031;-67
2022/04/28 06:35:40;;;;;;;13.70;8.17;;;9.50;99.90;;;;;;5055793;28;20027;-67
2022/04/28 06:38:06;;;;;;;12.47;8.80;;;9.50;99.90;;;;;;5054228;28;20025;-68
2022/04/28 06:40:31;;;;;;;8.97;7.40;;;9.60;99.90;;;;;;5055440;28;20466;-66
2022/04/28 06:42:57;;;;;;;11.13;8.80;;;9.70;99.90;;;;;;5055289;28;20111;-66
2022/04/28 06:45:23;;;;;;;13.35;8.98;;;9.80;99.90;;;;;;5054038;28;20098;-68
2022/04/28 06:47:49;;;;;;;;;;;9.80;99.90;;;;;;5055474;28;20043;-66
2022/04/28 06:50:15;;;;;;;15.82;8.68;;;9.90;99.90;;;;;;5055506;28;19995;-67
2022/04/28 06:52:41;;;;;;;12.40;8.67;;;10.00;99.90;;;;;;5055150;28;20359;-67
2022/04/28 06:55:08;;;;;;;10.00;7.80;;;10.00;99.90;;;;;;5055156;28;20025;-67
2022/04/28 06:57:35;;;;;;;10.32;7.10;;;10.20;99.90;;;;;;5055179;28;20220;-67
2022/04/28 07:00:03;;;;;;;9.98;7.72;;;10.30;99.90;;;;;;5054264;28;20025;-66
2022/04/28 07:02:28;;;;;;;12.38;7.50;;;10.50;99.90;;;;;;5054559;28;20097;-66
2022/04/28 07:04:54;;;;;;;9.97;7.90;;;10.60;99.90;;;;;;5056401;28;20079;-66
2022/04/28 07:07:20;;;;;;;10.27;7.37;;;10.70;99.90;;;;;;5055981;28;20067;-68
2022/04/28 07:09:45;;;;;;;9.30;7.67;;;10.80;99.90;;;;;;5054743;28;20139;-67
2022/04/28 07:12:11;;;;;;;16.57;8.03;;;10.90;99.90;;;;;;5054985;28;20474;-68
2022/04/28 07:14:37;;;;;;;9.82;7.22;;;10.90;99.90;;;;;;5056395;28;20028;-67
2022/04/28 07:17:03;;;;;;;9.23;7.30;;;11.10;99.90;;;;;;5054870;28;20432;-67
2022/04/28 07:19:29;;;;;;;8.02;6.68;;;11.20;99.90;;;;;;5054777;28;20036;-67
2022/04/28 07:21:54;;;;;;;13.93;8.07;;;11.30;99.90;;;;;;5054494;28;20116;-68
2022/04/28 07:24:20;;;;;;;12.77;7.73;;;11.40;99.90;;;;;;5054960;28;20457;-67
2022/04/28 07:26:45;;;;;;;9.77;7.33;;;11.60;99.90;;;;;;5054633;28;20052;-67
2022/04/28 07:29:11;;;;;;;10.93;7.03;;;11.70;99.90;;;;;;5054502;28;20021;-66
2022/04/28 07:31:37;;;;;;;9.00;7.20;;;11.80;99.90;;;;;;5053376;28;20087;-66
2022/04/28 07:34:03;;;;;;;8.90;7.10;;;11.90;99.90;;;;;;5054477;28;20021;-66
2022/04/28 07:36:28;;;;;;;9.13;6.85;;;12.10;99.90;;;;;;5054475;28;20029;-66
2022/04/28 07:38:54;;;;;;;8.32;6.35;;;12.20;99.90;;;;;;5054518;28;20119;-66
2022/04/28 07:41:20;;;;;;;8.37;6.27;;;12.30;99.90;;;;;;5053086;28;20108;-67
2022/04/28 07:43:45;;;;;;;9.70;6.47;;;12.40;99.90;;;;;;5054238;28;20336;-67
2022/04/28 07:46:11;;;;;;;9.60;6.67;;;12.60;99.90;;;;;;5054283;28;20024;-67
2022/04/28 07:48:37;;;;;;;7.90;5.77;;;12.80;99.90;;;;;;5054172;28;20021;-67
2022/04/28 07:51:03;;;;;;;9.97;6.70;;;13.00;99.90;;;;;;5054797;28;20262;-67
2022/04/28 07:53:31;;;;;;;9.52;6.20;;;13.20;99.90;;;;;;5054069;28;20858;-67
2022/04/28 07:56:15;;;;;;;7.05;5.70;;;13.40;99.90;;;;;;5052661;28;20124;-67
2022/04/28 07:58:45;;;;;;;8.57;6.22;;;13.60;99.90;;;;;;5053706;28;20021;-67
2022/04/28 08:01:14;;;;;;;7.18;5.20;;;13.70;99.90;;;;;;5054704;28;20095;-67
2022/04/28 08:03:39;;;;;;;8.85;5.45;;;13.80;99.90;;;;;;5053722;28;20462;-65
2022/04/28 08:06:05;;;;;;;10.00;5.38;;;14.00;99.90;;;;;;5052614;28;20025;-67
2022/04/28 08:08:33;;;;;;;8.57;6.15;;;14.10;99.90;;;;;;5053856;28;20032;-67
2022/04/28 08:11:00;;;;;;;8.77;5.53;;;14.20;99.90;;;;;;5053473;28;20031;-66
2022/04/28 08:13:25;;;;;;;9.57;5.10;;;14.50;99.90;;;;;;5053388;28;20024;-66
2022/04/28 08:15:51;;;;;;;6.13;4.60;;;15.10;99.90;;;;;;5053471;28;20036;-67
2022/04/28 08:18:16;;;;;;;6.40;4.70;;;16.60;99.90;;;;;;5053573;28;20029;-67
2022/04/28 08:20:42;;;;;;;8.75;4.88;;;17.80;97.90;;;;;;5053176;28;20275;-67
2022/04/28 08:23:08;;;;;;;5.63;4.47;;;19.50;93.40;;;;;;5053254;28;20035;-67
2022/04/28 08:25:34;;;;;;;5.75;4.00;;;20.60;90.90;;;;;;5053409;28;20474;-68
2022/04/28 08:28:00;;;;;;;4.90;3.88;;;20.60;88.70;;;;;;5053484;28;20036;-66
2022/04/28 08:30:26;;;;;;;6.03;3.97;;;21.10;82.10;;;;;;5052179;28;20025;-66
2022/04/28 08:32:51;;;;;;;;;;;21.30;81.10;;;;;;5054146;28;20068;-67
2022/04/28 08:35:17;;;;;;;6.70;4.30;;;20.70;81.40;;;;;;5053653;28;19912;-67
2022/04/28 08:37:43;;;;;;;;;;;20.60;80.10;;;;;;5054002;28;20025;-67
2022/04/28 08:40:09;;;;;;;5.50;3.80;;;21.40;79.70;;;;;;5052945;28;19908;-67
2022/04/28 08:42:41;;;;;;;5.00;4.20;;;23.30;76.30;;;;;;5053115;28;20394;-67
2022/04/28 08:45:06;;;;;;;4.82;4.07;;;23.50;73.20;;;;;;5052943;28;20021;-67
2022/04/28 08:47:32;;;;;;;;;;;23.00;73.70;;;;;;5053469;28;20035;-67
2022/04/28 08:49:58;;;;;;;5.68;3.97;;;23.80;69.80;;;;;;5053291;28;19911;-68
2022/04/28 08:52:25;;;;;;;6.53;4.72;;;23.40;68.90;;;;;;5052522;28;20031;-66
2022/04/28 08:54:53;;;;;;;6.53;4.05;;;23.70;68.00;;;;;;5052725;28;20363;-67
2022/04/28 08:57:18;;;;;;;4.07;3.38;;;24.50;65.70;;;;;;5053239;28;20029;-67
2022/04/28 08:59:45;;;;;;;5.30;3.80;;;24.20;65.10;;;;;;5051521;28;20086;-67
2022/04/28 09:02:12;;;;;;;3.65;3.33;;;24.90;63.70;;;;;;5052574;28;20071;-67
2022/04/28 09:04:39;;;;;;;3.90;3.55;;;25.60;61.90;;;;;;5052784;28;20053;-67
2022/04/28 09:07:07;;;;;;;3.88;3.47;;;24.90;61.50;;;;;;5053144;28;20021;-67
2022/04/28 09:09:33;;;;;;;5.53;3.10;;;25.90;61.20;;;;;;5053159;28;20517;-67
2022/04/28 09:12:00;;;;;;;4.35;3.20;;;27.90;58.80;;;;;;5052756;28;20037;-68
2022/04/28 09:14:27;;;;;;;5.25;3.65;;;27.90;55.20;;;;;;5052728;28;20070;-67
2022/04/28 09:16:57;;;;;;;5.05;3.38;;;28.50;53.50;;;;;;5052648;28;20025;-67
2022/04/28 09:19:34;;;;;;;7.25;3.70;;;28.10;53.10;;;;;;5052837;28;20029;-67
2022/04/28 09:22:06;;;;;;;4.93;3.50;;;29.50;52.40;;;;;;5052952;28;20028;-66
2022/04/28 09:24:32;;;;;;;3.42;2.53;;;28.60;50.40;;;;;;5052770;28;20025;-66
2022/04/28 09:26:58;;;;;;;16.73;7.43;;;27.10;49.90;;;;;;5052589;28;20029;-68
2022/04/28 09:29:28;;;;;;;8.15;3.13;;;26.70;51.00;;;;;;5052854;28;20025;-67
2022/04/28 09:31:55;;;;;;;4.65;2.50;;;25.90;51.80;;;;;;5054065;28;20059;-68
2022/04/28 09:34:23;;;;;;;5.72;2.97;;;26.10;50.80;;;;;;5054556;28;20017;-67
2022/04/28 09:36:49;;;;;;;3.30;2.80;;;26.00;49.40;;;;;;5053219;28;20454;-67
2022/04/28 09:42:29;;;;;;;9.15;5.50;;;24.60;50.20;;;;;;5054648;28;20033;-67
2022/04/28 09:42:50;;;;;;;10.15;4.35;;;24.10;50.40;;;;;;5053955;28;20064;-67
2022/04/28 09:44:52;;;;;;;6.70;3.30;;;24.20;49.70;;;;;;5044947;28;20029;-67
2022/04/28 09:47:22;;;;;;;4.85;2.38;;;25.10;49.00;;;;;;5052146;28;20025;-67
2022/04/28 09:49:58;;;;;;;7.32;2.70;;;25.80;48.00;;;;;;5052461;28;20021;-66
2022/04/28 09:52:26;;;;;;;4.70;2.72;;;25.30;47.90;;;;;;5052558;28;20075;-67
2022/04/28 09:54:53;;;;;;;4.80;3.00;;;25.10;48.70;;;;;;5050699;28;20502;-67
2022/04/28 09:57:20;;;;;;;3.80;3.05;;;25.40;49.60;;;;;;5052388;28;20048;-67
2022/04/28 09:59:47;;;;;;;6.95;3.08;;;25.60;48.60;;;;;;5051488;28;20028;-67
2022/04/28 10:02:16;;;;;;;3.85;2.97;;;25.50;48.30;;;;;;5051735;28;20029;-66
2022/04/28 10:04:43;;;;;;;4.50;3.08;;;24.60;50.00;;;;;;5053213;28;20382;-67
2022/04/28 10:07:09;;;;;;;3.80;2.60;;;24.40;49.00;;;;;;5055917;28;20094;-67
2022/04/28 10:09:39;;;;;;;3.60;2.45;;;24.40;48.70;;;;;;5054527;28;20541;-66
2022/04/28 10:12:06;;;;;;;4.25;2.70;;;25.10;47.80;;;;;;5055914;28;20033;-67
2022/04/28 10:14:35;;;;;;;2.90;2.65;;;26.10;48.30;;;;;;5056223;28;20029;-67
2022/04/28 10:17:02;;;;;;;3.67;2.50;;;25.70;47.60;;;;;;5056068;28;20079;-67
2022/04/28 10:19:34;;;;;;;3.58;2.15;;;25.60;46.70;;;;;;5056140;28;20058;-67
2022/04/28 10:22:07;;;;;;;4.53;2.60;;;25.40;48.10;;;;;;5055832;28;20032;-67
2022/04/28 10:33:20;;;;;;;3.50;2.80;;;27.10;44.50;;;;;;5056584;28;20446;-67
2022/04/28 10:35:55;;;;;;;;;;;25.20;46.00;;;;;;5057394;28;20109;-66
2022/04/28 10:38:38;;;;;;;4.05;2.47;;;25.30;47.00;;;;;;5057225;28;19962;-67
2022/04/28 10:41:10;;;;;;;3.55;2.55;;;24.80;48.10;;;;;;5055826;28;20131;-66
2022/04/28 10:43:40;;;;;;;3.25;2.85;;;26.00;47.80;;;;;;5057930;28;20394;-66
2022/04/28 10:46:08;;;;;;;3.08;2.28;;;25.40;47.70;;;;;;5055472;28;20044;-66
2022/04/28 10:48:45;;;;;;;6.03;2.80;;;25.60;47.10;;;;;;5055809;28;20382;-67
2022/04/28 10:51:16;;;;;;;6.32;3.30;;;25.10;46.50;;;;;;5054291;28;20082;-66
2022/04/28 10:54:10;;;;;;;4.00;2.53;;;26.60;45.80;;;;;;5054898;28;20123;-67
2022/04/28 10:56:42;;;;;;;8.23;2.60;;;27.50;45.70;;;;;;5055078;28;20021;-66
2022/04/28 10:59:34;;;;;;;4.07;2.70;;;27.60;44.70;;;;;;5055095;28;20025;-67
2022/04/28 11:02:15;;;;;;;5.50;2.42;;;26.90;45.40;;;;;;5053494;28;20063;-67
2022/04/28 11:04:49;;;;;;;3.38;2.53;;;26.90;45.30;;;;;;5054520;28;20056;-68
2022/04/28 11:07:21;;;;;;;3.88;2.83;;;26.80;45.10;;;;;;5054934;28;20401;-66
2022/04/28 11:09:57;;;;;;;3.67;2.13;;;24.50;46.60;;;;;;5055122;28;20024;-67
2022/04/28 11:12:25;;;;;;;3.92;2.80;;;23.10;49.10;;;;;;5055017;28;20409;-66
2022/04/28 11:15:04;;;;;;;5.53;2.50;;;22.30;50.50;;;;;;5054593;28;20100;-66
2022/04/28 11:17:33;;;;;;;3.88;2.60;;;21.50;51.50;;;;;;5054336;28;20051;-65
2022/04/28 11:20:01;;;;;;;4.18;2.60;;;20.90;52.50;;;;;;5054274;28;20363;-66
2022/04/28 11:22:28;;;;;;;9.15;3.13;;;21.00;52.80;;;;;;5054572;28;20386;-65
2022/04/28 11:24:53;;;;;;;;;;;20.70;53.40;;;;;;5054937;28;20462;-66
2022/04/28 11:27:20;;;;;;;4.20;2.70;;;20.50;53.40;;;;;;5054362;28;19916;-65
2022/04/28 11:29:48;;;;;;;3.42;2.40;;;20.40;53.50;;;;;;5054431;28;20043;-67
2022/04/28 11:32:16;;;;;;;8.52;3.10;;;20.30;53.80;;;;;;5054456;28;20393;-66
2022/04/28 11:34:44;;;;;;;3.10;2.65;;;20.10;53.80;;;;;;5052972;28;20386;-66
2022/04/28 11:37:17;;;;;;;4.88;3.05;;;20.10;54.00;;;;;;5054219;28;20020;-66
2022/04/28 11:39:48;;;;;;;4.28;2.65;;;19.90;55.00;;;;;;5052808;28;20136;-67
2022/04/28 11:42:18;;;;;;;4.55;2.38;;;19.80;55.30;;;;;;5053851;28;20021;-66
2022/04/28 11:44:53;;;;;;;4.43;2.35;;;19.60;55.20;;;;;;5052774;28;20028;-65
2022/04/28 11:47:19;;;;;;;5.95;2.83;;;19.40;56.00;;;;;;5053838;28;20523;-66
2022/04/28 11:49:45;;;;;;;4.68;3.53;;;19.50;56.70;;;;;;5053749;28;20021;-66
2022/04/28 11:52:25;;;;;;;4.45;2.85;;;19.50;56.20;;;;;;5053835;28;20373;-66
2022/04/28 11:54:56;;;;;;;4.18;3.00;;;19.50;56.20;;;;;;5054141;28;20397;-66
2022/04/28 11:57:22;;;;;;;3.70;3.00;;;19.50;56.90;;;;;;5056255;28;20029;-66
2022/04/28 11:59:48;;;;;;;;;;;19.40;56.30;;;;;;5056034;28;20048;-66
2022/04/28 12:02:34;;;;;;;3.67;2.67;;;19.40;57.20;;;;;;5053297;28;20002;-66
2022/04/28 12:05:15;;;;;;;6.90;3.70;;;19.50;57.10;;;;;;5054487;28;20173;-66
2022/04/28 12:07:51;;;;;;;4.95;3.30;;;19.40;57.20;;;;;;5053418;28;20025;-66
2022/04/28 12:15:56;;;;;;;5.15;3.63;;;19.50;58.70;;;;;;5054374;28;20074;-66
2022/04/28 12:21:17;;;;;;;6.22;3.53;;;19.40;58.50;;;;;;5053683;28;20044;-66
2022/04/28 12:23:46;;;;;;;5.50;3.80;;;19.50;58.30;;;;;;5053424;28;20033;-66
2022/04/28 12:26:13;;;;;;;3.65;3.17;;;19.40;58.50;;;;;;5053842;28;20500;-66
2022/04/28 12:28:39;;;;;;;5.65;3.58;;;19.40;59.20;;;;;;5053687;28;20017;-66
2022/04/28 12:31:06;;;;;;;4.40;3.33;;;19.30;59.40;;;;;;5053509;28;20095;-66
2022/04/28 12:33:35;;;;;;;5.68;3.30;;;19.30;59.20;;;;;;5053887;28;20020;-67
2022/04/28 12:36:03;;;;;;;4.95;3.47;;;19.20;59.60;;;;;;5054001;28;20021;-65
2022/04/28 12:38:31;;;;;;;6.07;3.85;;;19.30;59.90;;;;;;5053370;28;20057;-66
2022/04/28 12:41:10;;;;;;;5.38;3.30;;;19.30;59.70;;;;;;5053747;28;20075;-65
2022/04/28 12:43:38;;;;;;;5.80;3.15;;;19.40;59.60;;;;;;5053011;28;20051;-66
2022/04/28 12:46:07;;;;;;;4.93;3.30;;;19.30;58.90;;;;;;5052944;28;20029;-66
2022/04/28 12:48:35;;;;;;;5.35;2.88;;;19.40;59.90;;;;;;5053452;28;20028;-67
2022/04/28 12:51:08;;;;;;;5.30;3.05;;;19.60;59.60;;;;;;5052945;28;20020;-66
2022/04/28 12:53:35;;;;;;;6.95;3.67;;;19.60;58.70;;;;;;5053375;28;20512;-66
2022/04/28 12:56:01;;;;;;;;;;;19.40;58.50;;;;;;5051913;28;20029;-66
2022/04/28 12:58:26;;;;;;;4.05;2.72;;;19.40;58.90;;;;;;5051635;28;20443;-67
2022/04/28 13:00:52;;;;;;;3.88;2.95;;;19.40;58.80;;;;;;5052766;28;20080;-66
2022/04/28 13:03:28;;;;;;;5.55;2.55;;;19.50;58.40;;;;;;5052752;28;20063;-66
2022/04/28 13:05:53;;;;;;;7.57;2.88;;;19.60;58.60;;;;;;5052768;28;20355;-65
2022/04/28 13:08:19;;;;;;;3.60;2.40;;;19.80;58.80;;;;;;5053188;28;20158;-67
2022/04/28 13:10:45;;;;;;;9.52;2.85;;;19.90;58.70;;;;;;5052847;28;20025;-66
2022/04/28 13:13:10;;;;;;;3.80;2.58;;;20.00;57.90;;;;;;5052550;28;20025;-66
2022/04/28 13:15:36;;;;;;;7.13;3.08;;;19.90;57.30;;;;;;5052891;28;20029;-66
2022/04/28 13:18:02;;;;;;;8.18;2.40;;;19.80;57.60;;;;;;5052553;28;20039;-65
2022/04/28 13:20:28;;;;;;;3.33;2.45;;;19.90;58.00;;;;;;5052524;28;20478;-67
2022/04/28 13:22:53;;;;;;;4.65;2.72;;;19.80;57.50;;;;;;5052545;28;20040;-67
2022/04/28 13:25:19;;;;;;;6.38;2.40;;;19.80;56.70;;;;;;5052949;28;20353;-67